Terminal Aerodrome Forecast
Issued by NWS Austin/San Antonio, TX

Home | Current Version | Previous Version | Text Only | Print | Product List | Glossary On
Versions: 1 2 3 4 5 6 7 8 9 10 11 12 13 14 15 16 17 18 19 20 21 22 23 24 25 26 27
000
FTUS44 KEWX 222328
TAFDRT
TAF
KDRT 222328Z 2300/2324 14015KT P6SM SKC
     FM230200 12008KT P6SM SKC
     FM231000 11007KT P6SM BKN020
     FM231700 36007KT P6SM SCT025
     FM231900 34020G30KT P6SM BKN035=

USA.gov is the U.S. government's official web portal to all federal, state and local government web resources and services.